createdAt,value
2022-10-06T00:01:12.930Z,15.60
2022-10-06T00:03:43.728Z,25.00
2022-10-06T00:06:13.686Z,21.73
2022-10-06T00:08:43.959Z,18.45
2022-10-06T00:11:15.104Z,25.38
2022-10-06T00:13:43.689Z,19.48
2022-10-06T00:16:13.473Z,17.38
2022-10-06T00:18:43.598Z,17.95
2022-10-06T00:21:12.247Z,23.05
2022-10-06T00:23:40.897Z,17.23
2022-10-06T00:26:13.630Z,19.08
2022-10-06T00:28:42.126Z,19.48
2022-10-06T00:31:10.906Z,23.08
2022-10-06T00:33:39.576Z,22.38
2022-10-06T00:36:09.674Z,18.35
2022-10-06T00:38:38.121Z,20.55
2022-10-06T00:41:06.897Z,24.13
2022-10-06T00:43:47.238Z,16.00
2022-10-06T00:46:21.837Z,23.55
2022-10-06T00:48:54.723Z,21.05
2022-10-06T00:51:25.438Z,19.73
2022-10-06T00:53:53.967Z,22.38
2022-10-06T00:56:22.427Z,22.95
2022-10-06T00:58:51.325Z,26.08
2022-10-06T01:01:19.890Z,17.65
2022-10-06T01:03:52.235Z,15.95
2022-10-06T01:06:21.022Z,17.38
2022-10-06T01:08:51.119Z,18.80
2022-10-06T01:11:19.753Z,24.35
2022-10-06T01:13:49.133Z,18.52
2022-10-06T01:16:21.125Z,20.00
2022-10-06T01:18:50.103Z,22.10
2022-10-06T01:21:27.370Z,17.10
2022-10-06T01:23:58.547Z,15.65
2022-10-06T01:26:29.714Z,12.75
2022-10-06T01:28:58.719Z,14.65
2022-10-06T01:31:28.150Z,14.95
2022-10-06T01:33:57.516Z,21.80
2022-10-06T01:36:26.231Z,14.95
2022-10-06T01:38:56.131Z,17.77
2022-10-06T01:41:25.767Z,23.58
2022-10-06T01:43:54.347Z,17.52
2022-10-06T01:46:22.888Z,23.85
2022-10-06T01:48:51.624Z,23.20
2022-10-06T01:51:20.336Z,18.00
2022-10-06T01:53:49.076Z,19.33
2022-10-06T01:56:21.264Z,23.23
2022-10-06T01:58:50.276Z,22.40
2022-10-06T02:01:19.343Z,22.85
2022-10-06T02:03:47.943Z,20.23
2022-10-06T02:06:16.499Z,16.65
2022-10-06T02:08:46.332Z,18.13
2022-10-06T02:11:14.928Z,16.13
2022-10-06T02:13:45.336Z,21.35
2022-10-06T02:16:14.537Z,15.82
2022-10-06T02:18:44.627Z,15.93
2022-10-06T02:21:17.704Z,18.92
2022-10-06T02:23:46.230Z,17.58
2022-10-06T02:26:17.495Z,15.20
2022-10-06T02:28:50.059Z,17.15
2022-10-06T02:31:22.389Z,13.93
2022-10-06T02:33:51.757Z,17.02
2022-10-06T02:36:22.699Z,17.38
2022-10-06T02:38:51.313Z,16.38
2022-10-06T02:41:20.655Z,17.98
2022-10-06T02:43:50.566Z,15.73
2022-10-06T02:46:19.063Z,13.55
2022-10-06T02:48:51.491Z,19.05
2022-10-06T02:51:22.400Z,16.00
2022-10-06T02:53:53.158Z,15.13
2022-10-06T02:56:23.869Z,13.55
2022-10-06T02:58:54.911Z,14.25
2022-10-06T03:01:30.091Z,21.90
2022-10-06T03:04:01.642Z,17.02
2022-10-06T03:06:32.358Z,21.70
2022-10-06T03:09:21.081Z,20.45
2022-10-06T03:11:49.994Z,20.52
2022-10-06T03:14:51.840Z,14.23
2022-10-06T03:17:21.314Z,18.02
2022-10-06T03:19:54.377Z,19.88
2022-10-06T03:22:22.821Z,14.43
2022-10-06T03:24:56.739Z,18.02
2022-10-06T03:27:26.167Z,20.42
2022-10-06T03:29:59.905Z,17.67
2022-10-06T03:32:29.950Z,16.77
2022-10-06T03:34:58.971Z,16.65
2022-10-06T03:37:29.997Z,13.27
2022-10-06T03:39:58.498Z,22.67
2022-10-06T03:42:26.981Z,18.10
2022-10-06T03:44:55.934Z,19.73
2022-10-06T03:47:26.070Z,24.17
2022-10-06T03:49:54.542Z,17.23
2022-10-06T03:52:25.992Z,15.90
2022-10-06T03:54:55.722Z,12.07
2022-10-06T03:57:24.726Z,16.60
2022-10-06T03:59:53.231Z,14.27
2022-10-06T04:05:32.332Z,14.45
2022-10-06T04:08:01.043Z,11.70
2022-10-06T04:10:29.541Z,15.40
2022-10-06T04:12:58.035Z,13.20
2022-10-06T04:15:26.504Z,19.10
2022-10-06T04:17:56.209Z,18.25
2022-10-06T04:20:24.899Z,15.73
2022-10-06T04:22:56.272Z,14.85
2022-10-06T04:25:24.867Z,17.98
2022-10-06T04:27:54.194Z,20.08
2022-10-06T04:30:22.671Z,22.13
2022-10-06T04:32:51.370Z,13.35
2022-10-06T04:35:20.338Z,12.18
2022-10-06T04:37:50.079Z,15.13
2022-10-06T04:40:20.133Z,18.02
2022-10-06T04:42:49.885Z,17.30
2022-10-06T04:45:18.684Z,12.20
2022-10-06T04:47:50.499Z,14.98
2022-10-06T04:50:19.426Z,13.98
2022-10-06T04:53:05.630Z,16.50
2022-10-06T04:55:35.958Z,18.65
2022-10-06T04:58:05.778Z,20.13
2022-10-06T05:00:34.230Z,12.70
2022-10-06T05:03:03.102Z,22.77
2022-10-06T05:05:32.443Z,14.02
2022-10-06T05:08:00.968Z,16.35
2022-10-06T05:10:30.214Z,16.50
2022-10-06T05:13:00.469Z,12.20
2022-10-06T05:15:29.446Z,22.85
2022-10-06T05:17:57.878Z,16.08
2022-10-06T05:20:26.511Z,14.27
2022-10-06T05:22:55.342Z,11.30
2022-10-06T05:25:24.973Z,13.95
2022-10-06T05:27:53.531Z,10.57
2022-10-06T05:30:23.555Z,11.10
2022-10-06T05:32:52.589Z,16.48
2022-10-06T05:35:21.475Z,23.20
2022-10-06T05:37:50.400Z,9.73
2022-10-06T05:40:18.991Z,15.63
2022-10-06T05:42:47.441Z,11.73
2022-10-06T05:45:16.105Z,17.65
2022-10-06T05:47:46.077Z,8.65
2022-10-06T05:50:16.041Z,13.40
2022-10-06T05:52:44.745Z,12.32
2022-10-06T05:55:13.216Z,12.23
2022-10-06T05:57:42.173Z,18.27
2022-10-06T06:00:11.743Z,13.32
2022-10-06T06:02:41.493Z,10.82
2022-10-06T06:05:13.239Z,16.50
2022-10-06T06:07:42.162Z,10.40
2022-10-06T06:10:10.743Z,13.90
2022-10-06T06:12:39.621Z,16.50
2022-10-06T06:15:54.734Z,10.55
2022-10-06T06:18:23.257Z,12.50
2022-10-06T06:20:58.515Z,18.38
2022-10-06T06:23:31.672Z,10.60
2022-10-06T06:26:02.652Z,10.95
2022-10-06T06:28:33.062Z,12.95
2022-10-06T06:31:04.187Z,13.20
2022-10-06T06:33:32.893Z,19.67
2022-10-06T06:36:03.813Z,14.48
2022-10-06T06:38:33.138Z,11.88
2022-10-06T06:41:01.917Z,18.92
2022-10-06T06:43:30.907Z,12.88
2022-10-06T06:46:19.898Z,9.95
2022-10-06T06:48:59.060Z,18.50
2022-10-06T06:51:30.051Z,21.73
2022-10-06T06:54:01.036Z,18.05
2022-10-06T06:56:33.493Z,14.65
2022-10-06T06:59:03.827Z,15.05
2022-10-06T07:01:33.071Z,13.70
2022-10-06T07:04:01.608Z,14.75
2022-10-06T07:06:40.162Z,16.20
2022-10-06T07:09:11.074Z,17.80
2022-10-06T07:11:41.333Z,8.77
2022-10-06T07:14:13.671Z,13.60
2022-10-06T07:17:02.979Z,12.35
2022-10-06T07:19:49.217Z,11.65
2022-10-06T07:22:38.885Z,17.10
2022-10-06T07:25:24.357Z,9.82
2022-10-06T07:27:57.304Z,13.43
2022-10-06T07:30:31.111Z,16.67
2022-10-06T07:33:05.177Z,17.48
2022-10-06T07:35:34.732Z,20.88
2022-10-06T07:38:08.151Z,10.32
2022-10-06T07:41:17.853Z,13.10
2022-10-06T07:43:44.871Z,11.68
2022-10-06T07:46:14.315Z,17.48
2022-10-06T07:48:51.971Z,16.50
2022-10-06T07:51:21.163Z,11.82
2022-10-06T07:53:51.512Z,10.55
2022-10-06T07:56:52.613Z,13.82
2022-10-06T07:59:22.270Z,22.98
2022-10-06T08:01:52.615Z,13.85
2022-10-06T08:04:21.094Z,12.65
2022-10-06T08:06:49.662Z,17.55
2022-10-06T08:09:20.135Z,15.15
2022-10-06T08:11:48.992Z,12.23
2022-10-06T08:14:17.587Z,15.50
2022-10-06T08:16:46.125Z,11.98
2022-10-06T08:19:14.921Z,14.45
2022-10-06T08:21:43.482Z,9.10
2022-10-06T08:24:12.119Z,10.00
2022-10-06T08:26:44.114Z,12.93
2022-10-06T08:29:12.557Z,11.68
2022-10-06T08:31:41.037Z,7.18
2022-10-06T08:34:12.165Z,20.08
2022-10-06T08:36:48.247Z,23.35
2022-10-06T08:39:30.955Z,26.85
2022-10-06T08:42:00.920Z,44.38
2022-10-06T08:44:36.319Z,28.67
2022-10-06T08:47:07.901Z,36.13
2022-10-06T08:49:44.794Z,33.92
2022-10-06T08:52:24.165Z,24.60
2022-10-06T08:55:04.407Z,19.52
2022-10-06T08:57:43.983Z,18.55
2022-10-06T09:00:18.167Z,15.90
2022-10-06T09:02:51.991Z,13.98
2022-10-06T09:05:25.674Z,10.68
2022-10-06T09:08:06.292Z,7.50
2022-10-06T09:10:44.509Z,17.27
2022-10-06T09:13:21.910Z,14.23
2022-10-06T09:15:55.156Z,14.55
2022-10-06T09:18:49.511Z,17.70
2022-10-06T09:21:24.901Z,17.55
2022-10-06T09:23:57.165Z,16.08
2022-10-06T09:26:31.451Z,19.08
2022-10-06T09:29:01.705Z,14.15
2022-10-06T09:31:31.969Z,19.60
2022-10-06T09:34:05.948Z,16.13
2022-10-06T09:36:57.735Z,13.85
2022-10-06T09:39:33.492Z,16.27
2022-10-06T09:42:06.979Z,15.77
2022-10-06T09:44:48.234Z,17.20
2022-10-06T09:47:42.026Z,17.83
2022-10-06T09:50:20.715Z,25.70
2022-10-06T09:53:11.077Z,9.93
2022-10-06T09:55:46.822Z,9.02
2022-10-06T09:58:23.380Z,8.88
2022-10-06T10:01:00.272Z,14.63
2022-10-06T10:03:51.523Z,13.55
2022-10-06T10:06:27.755Z,8.35
2022-10-06T10:09:22.903Z,13.57
2022-10-06T10:12:20.755Z,9.75
2022-10-06T10:14:49.324Z,11.18
2022-10-06T10:17:23.726Z,14.77
2022-10-06T10:19:54.554Z,15.13
2022-10-06T10:22:26.319Z,12.73
2022-10-06T10:25:07.006Z,13.32
2022-10-06T10:27:46.093Z,7.13
2022-10-06T10:30:16.099Z,9.85
2022-10-06T10:33:00.446Z,13.88
2022-10-06T10:35:31.888Z,12.43
2022-10-06T10:38:05.960Z,17.15
2022-10-06T10:40:43.122Z,17.70
2022-10-06T10:43:22.836Z,12.50
2022-10-06T10:45:53.637Z,17.35
2022-10-06T10:48:29.269Z,12.73
2022-10-06T10:51:04.200Z,19.38
2022-10-06T10:53:42.636Z,11.10
2022-10-06T10:56:16.344Z,15.45
2022-10-06T10:58:46.974Z,21.38
2022-10-06T11:01:29.894Z,12.88
2022-10-06T11:04:01.018Z,14.52
2022-10-06T11:06:49.194Z,13.32
2022-10-06T11:09:20.129Z,18.02
2022-10-06T11:12:03.735Z,17.17
2022-10-06T11:14:55.310Z,11.23
2022-10-06T11:17:44.558Z,17.42
2022-10-06T11:20:39.253Z,20.05
2022-10-06T11:23:32.858Z,20.40
2022-10-06T11:26:09.368Z,24.15
2022-10-06T11:28:43.991Z,13.57
2022-10-06T11:31:24.100Z,19.55
2022-10-06T11:33:54.476Z,23.75
2022-10-06T11:36:35.841Z,22.58
2022-10-06T11:39:16.460Z,26.05
2022-10-06T11:41:49.890Z,17.92
2022-10-06T11:44:25.702Z,13.98
2022-10-06T11:46:57.422Z,14.77
2022-10-06T11:49:56.166Z,15.57
2022-10-06T11:52:46.585Z,25.52
2022-10-06T11:55:22.268Z,16.70
2022-10-06T11:58:40.874Z,16.85
2022-10-06T12:01:06.350Z,22.02
2022-10-06T12:03:49.928Z,21.23
2022-10-06T12:06:56.370Z,16.23
2022-10-06T12:09:51.129Z,18.65
2022-10-06T12:13:11.349Z,29.17
2022-10-06T12:19:09.021Z,19.20
2022-10-06T12:21:45.680Z,19.33
2022-10-06T12:24:37.927Z,23.88
2022-10-06T12:27:32.084Z,15.10
2022-10-06T12:30:06.549Z,23.88
2022-10-06T12:32:56.028Z,16.02
2022-10-06T12:35:29.171Z,20.83
2022-10-06T12:38:00.610Z,25.83
2022-10-06T12:40:54.788Z,24.02
2022-10-06T12:43:50.135Z,23.83
2022-10-06T12:46:27.187Z,25.92
2022-10-06T12:49:32.069Z,27.33
2022-10-06T12:52:10.943Z,20.90
2022-10-06T12:54:46.974Z,21.35
2022-10-06T12:57:21.662Z,25.42
2022-10-06T12:59:51.506Z,29.33
2022-10-06T13:02:22.323Z,21.02
2022-10-06T13:04:54.502Z,25.40
2022-10-06T13:07:26.063Z,13.73
2022-10-06T13:09:56.561Z,19.42
2022-10-06T13:12:28.473Z,21.35
2022-10-06T13:18:13.728Z,19.52
2022-10-06T13:20:44.171Z,25.10
2022-10-06T13:23:24.312Z,27.33
2022-10-06T13:25:57.696Z,16.15
2022-10-06T13:28:32.405Z,17.80
2022-10-06T13:31:04.199Z,24.35
2022-10-06T13:33:38.444Z,25.80
2022-10-06T13:36:08.933Z,21.63
2022-10-06T13:38:39.031Z,21.58
2022-10-06T13:41:17.540Z,20.30
2022-10-06T13:43:49.745Z,30.08
2022-10-06T13:46:22.895Z,19.17
2022-10-06T13:48:54.875Z,28.27
2022-10-06T13:51:25.843Z,19.80
2022-10-06T13:53:54.697Z,23.40
2022-10-06T13:56:38.723Z,22.48
2022-10-06T13:59:33.033Z,24.60
2022-10-06T14:02:22.669Z,20.55
2022-10-06T14:05:24.086Z,22.63
2022-10-06T14:07:52.930Z,21.60
2022-10-06T14:10:29.321Z,28.75
2022-10-06T14:12:59.753Z,28.67
2022-10-06T14:15:31.837Z,27.30
2022-10-06T14:18:04.629Z,22.50
2022-10-06T14:20:46.255Z,22.33
2022-10-06T14:23:48.389Z,21.05
2022-10-06T14:26:18.672Z,22.27
2022-10-06T14:28:49.348Z,25.08
2022-10-06T14:31:17.828Z,24.60
2022-10-06T14:33:49.504Z,19.52
2022-10-06T14:36:20.768Z,20.90
2022-10-06T14:38:50.741Z,26.23
2022-10-06T14:41:24.680Z,21.98
2022-10-06T14:43:56.434Z,27.80
2022-10-06T14:46:25.846Z,33.88
2022-10-06T14:48:56.201Z,22.85
2022-10-06T14:51:26.454Z,23.00
2022-10-06T14:53:56.637Z,20.70
2022-10-06T14:56:26.711Z,34.00
2022-10-06T14:58:55.154Z,34.42
2022-10-06T15:01:26.653Z,117.43
2022-10-06T15:03:58.714Z,41.42
2022-10-06T15:06:45.409Z,83.65
2022-10-06T15:09:14.185Z,39.17
2022-10-06T15:11:42.946Z,39.70
2022-10-06T15:14:11.835Z,25.55
2022-10-06T15:16:42.468Z,32.35
2022-10-06T15:19:13.194Z,57.15
2022-10-06T15:21:45.349Z,44.35
2022-10-06T15:24:16.537Z,45.13
2022-10-06T15:27:03.366Z,31.92
2022-10-06T15:29:34.885Z,30.08
2022-10-06T15:32:06.436Z,82.68
2022-10-06T15:34:37.949Z,48.65
2022-10-06T15:37:07.229Z,84.97
2022-10-06T15:39:37.730Z,63.58
2022-10-06T15:42:08.134Z,36.35
2022-10-06T15:44:37.118Z,27.42
2022-10-06T15:47:07.441Z,34.83
2022-10-06T15:49:40.669Z,27.88
2022-10-06T15:52:11.785Z,28.27
2022-10-06T15:54:42.114Z,22.27
2022-10-06T15:57:17.815Z,25.80
2022-10-06T15:59:49.458Z,97.45
2022-10-06T16:02:20.272Z,88.40
2022-10-06T16:05:17.513Z,83.40
2022-10-06T16:07:46.432Z,31.05
2022-10-06T16:10:15.026Z,21.50
2022-10-06T16:12:43.458Z,24.77
2022-10-06T16:15:12.361Z,28.13
2022-10-06T16:17:40.804Z,32.38
2022-10-06T16:20:11.722Z,26.95
2022-10-06T16:22:40.995Z,35.50
2022-10-06T16:25:10.278Z,23.15
2022-10-06T16:27:39.536Z,22.63
2022-10-06T16:30:09.801Z,17.02
2022-10-06T16:32:38.389Z,33.33
2022-10-06T16:35:08.245Z,37.10
2022-10-06T16:37:38.152Z,35.35
2022-10-06T16:40:07.541Z,40.40
2022-10-06T16:42:36.266Z,28.75
2022-10-06T16:45:05.610Z,28.92
2022-10-06T16:47:34.049Z,25.63
2022-10-06T16:50:02.561Z,20.85
2022-10-06T16:52:31.041Z,29.45
2022-10-06T16:55:01.838Z,27.38
2022-10-06T16:57:30.678Z,23.38
2022-10-06T17:00:00.495Z,30.70
2022-10-06T17:02:28.929Z,30.20
2022-10-06T17:04:57.426Z,25.67
2022-10-06T17:07:25.843Z,34.30
2022-10-06T17:10:18.429Z,22.10
2022-10-06T17:12:44.639Z,29.25
2022-10-06T17:15:13.085Z,27.48
2022-10-06T17:17:41.973Z,24.90
2022-10-06T17:20:11.128Z,25.27
2022-10-06T17:22:39.792Z,21.58
2022-10-06T17:25:08.750Z,26.55
2022-10-06T17:27:41.188Z,20.40
2022-10-06T17:30:15.460Z,23.55
2022-10-06T17:32:44.717Z,21.55
2022-10-06T17:35:13.543Z,35.38
2022-10-06T17:37:42.525Z,25.45
2022-10-06T17:40:13.313Z,20.88
2022-10-06T17:42:42.838Z,27.17
2022-10-06T17:45:14.193Z,28.13
2022-10-06T17:47:44.043Z,29.48
2022-10-06T17:50:12.548Z,22.55
2022-10-06T17:52:41.234Z,35.83
2022-10-06T17:55:10.608Z,27.77
2022-10-06T17:57:39.406Z,31.02
2022-10-06T18:00:09.990Z,27.58
2022-10-06T18:02:41.874Z,31.25
2022-10-06T18:05:11.301Z,23.88
2022-10-06T18:07:40.076Z,25.45
2022-10-06T18:10:26.864Z,26.52
2022-10-06T18:12:55.347Z,34.80
2022-10-06T18:15:23.794Z,26.15
2022-10-06T18:17:53.710Z,22.15
2022-10-06T18:20:22.159Z,23.08
2022-10-06T18:22:50.622Z,17.05
2022-10-06T18:25:23.156Z,21.50
2022-10-06T18:27:54.476Z,18.88
2022-10-06T18:30:26.952Z,26.75
2022-10-06T18:36:06.818Z,31.48
2022-10-06T18:38:44.264Z,17.50
2022-10-06T18:41:15.267Z,27.17
2022-10-06T18:43:43.923Z,27.40
2022-10-06T18:46:31.834Z,17.30
2022-10-06T18:49:05.956Z,28.88
2022-10-06T18:51:36.290Z,27.77
2022-10-06T18:54:08.454Z,16.70
2022-10-06T18:56:38.574Z,30.88
2022-10-06T18:59:10.521Z,17.08
2022-10-06T19:01:41.718Z,28.65
2022-10-06T19:04:15.153Z,19.58
2022-10-06T19:06:45.375Z,27.55
2022-10-06T19:09:17.716Z,23.30
2022-10-06T19:11:52.314Z,19.30
2022-10-06T19:14:22.928Z,23.83
2022-10-06T19:16:54.308Z,23.77
2022-10-06T19:19:26.575Z,24.63
2022-10-06T19:21:59.589Z,24.50
2022-10-06T19:24:30.587Z,27.77
2022-10-06T19:26:59.669Z,27.30
2022-10-06T19:29:28.208Z,29.98
2022-10-06T19:31:59.626Z,23.80
2022-10-06T19:34:29.837Z,39.65
2022-10-06T19:36:58.402Z,20.90
2022-10-06T19:39:30.636Z,18.23
2022-10-06T19:42:17.158Z,24.73
2022-10-06T19:44:45.653Z,23.35
2022-10-06T19:47:15.946Z,25.02
2022-10-06T19:49:46.247Z,23.65
2022-10-06T19:52:16.194Z,23.92
2022-10-06T19:54:46.295Z,22.60
2022-10-06T19:57:14.789Z,24.48
2022-10-06T19:59:43.334Z,26.70
2022-10-06T20:02:12.827Z,29.75
2022-10-06T20:04:41.380Z,22.50
2022-10-06T20:07:11.265Z,22.63
2022-10-06T20:09:39.843Z,30.38
2022-10-06T20:12:08.657Z,35.33
2022-10-06T20:14:37.528Z,28.65
2022-10-06T20:17:06.201Z,33.10
2022-10-06T20:19:35.401Z,29.10
2022-10-06T20:22:06.208Z,28.13
2022-10-06T20:24:36.049Z,24.17
2022-10-06T20:27:04.515Z,35.90
2022-10-06T20:29:33.260Z,35.70
2022-10-06T20:32:01.750Z,53.55
2022-10-06T20:34:32.403Z,41.78
2022-10-06T20:37:02.505Z,32.13
2022-10-06T20:39:50.065Z,41.17
2022-10-06T20:42:21.871Z,35.80
2022-10-06T20:44:50.338Z,36.95
2022-10-06T20:47:18.875Z,31.88
2022-10-06T20:49:53.551Z,37.40
2022-10-06T20:52:22.670Z,25.10
2022-10-06T20:54:51.382Z,36.22
2022-10-06T20:57:21.414Z,26.85
2022-10-06T20:59:49.788Z,25.15
2022-10-06T21:02:18.440Z,32.95
2022-10-06T21:04:46.995Z,30.45
2022-10-06T21:07:15.408Z,39.67
2022-10-06T21:09:45.680Z,35.13
2022-10-06T21:12:17.503Z,27.95
2022-10-06T21:14:48.560Z,29.42
2022-10-06T21:17:17.062Z,23.38
2022-10-06T21:19:45.610Z,29.95
2022-10-06T21:22:14.043Z,31.10
2022-10-06T21:24:42.488Z,34.28
2022-10-06T21:27:10.964Z,27.63
2022-10-06T21:29:39.470Z,28.02
2022-10-06T21:32:09.701Z,37.72
2022-10-06T21:34:40.319Z,37.75
2022-10-06T21:37:08.775Z,28.60
2022-10-06T21:39:37.681Z,37.70
2022-10-06T21:42:06.212Z,31.75
2022-10-06T21:44:34.655Z,31.25
2022-10-06T21:47:03.622Z,25.15
2022-10-06T21:49:33.557Z,25.77
2022-10-06T21:52:04.878Z,30.33
2022-10-06T21:54:33.370Z,34.70
2022-10-06T21:57:02.057Z,28.05
2022-10-06T21:59:30.468Z,28.02
2022-10-06T22:01:59.767Z,23.25
2022-10-06T22:04:28.328Z,34.30
2022-10-06T22:06:58.222Z,31.17
2022-10-06T22:09:26.780Z,30.77
2022-10-06T22:11:55.339Z,32.90
2022-10-06T22:14:24.513Z,24.98
2022-10-06T22:16:52.965Z,27.60
2022-10-06T22:19:21.547Z,31.63
2022-10-06T22:21:50.047Z,27.25
2022-10-06T22:24:21.391Z,24.15
2022-10-06T22:26:50.688Z,33.33
2022-10-06T22:29:20.924Z,17.08
2022-10-06T22:31:51.751Z,19.85
2022-10-06T22:34:21.961Z,22.63
2022-10-06T22:36:50.384Z,29.42
2022-10-06T22:39:20.300Z,36.63
2022-10-06T22:41:48.711Z,40.97
2022-10-06T22:44:17.147Z,31.73
2022-10-06T22:46:45.660Z,30.15
2022-10-06T22:49:14.139Z,33.88
2022-10-06T22:51:42.534Z,33.67
2022-10-06T22:54:18.299Z,31.20
2022-10-06T22:56:48.141Z,39.20
2022-10-06T22:59:16.572Z,54.03
2022-10-06T23:01:45.059Z,61.30
2022-10-06T23:04:13.479Z,51.10
2022-10-06T23:06:41.927Z,29.33
2022-10-06T23:09:10.396Z,38.15
2022-10-06T23:11:38.871Z,37.78
2022-10-06T23:14:08.696Z,45.67
2022-10-06T23:16:37.587Z,39.35
2022-10-06T23:19:06.096Z,34.05
2022-10-06T23:21:34.533Z,23.83
2022-10-06T23:24:03.097Z,23.20
2022-10-06T23:26:33.428Z,27.20
2022-10-06T23:29:04.048Z,32.65
2022-10-06T23:31:33.944Z,32.28
2022-10-06T23:34:02.443Z,40.67
2022-10-06T23:36:30.956Z,29.90
2022-10-06T23:39:00.374Z,38.75
2022-10-06T23:41:28.812Z,38.55
2022-10-06T23:43:57.274Z,34.47
2022-10-06T23:46:25.703Z,32.45
2022-10-06T23:48:55.740Z,31.13
2022-10-06T23:51:24.407Z,35.08
2022-10-06T23:53:52.874Z,40.58
2022-10-06T23:56:21.924Z,39.38
2022-10-06T23:58:50.448Z,31.85
